createdAt,value
2018-05-10T00:01:23.806Z,16.50
2018-05-10T00:03:52.550Z,16.70
2018-05-10T00:06:20.003Z,16.60
2018-05-10T00:08:47.459Z,16.80
2018-05-10T00:11:14.921Z,16.90
2018-05-10T00:13:42.367Z,17.00
2018-05-10T00:16:09.813Z,17.20
2018-05-10T00:18:37.260Z,17.30
2018-05-10T00:21:04.717Z,17.40
2018-05-10T00:23:32.155Z,17.40
2018-05-10T00:26:00.378Z,17.40
2018-05-10T00:28:27.840Z,17.40
2018-05-10T00:30:55.280Z,17.30
2018-05-10T00:33:23.258Z,17.20
2018-05-10T00:35:50.712Z,17.10
2018-05-10T00:38:18.170Z,16.40
2018-05-10T00:40:45.633Z,15.60
2018-05-10T00:43:13.079Z,15.40
2018-05-10T00:45:40.546Z,15.40
2018-05-10T00:48:07.989Z,15.50
2018-05-10T00:50:35.538Z,15.60
2018-05-10T00:53:02.994Z,15.80
2018-05-10T00:55:30.667Z,16.00
2018-05-10T00:57:58.109Z,16.00
2018-05-10T01:00:25.651Z,15.50
2018-05-10T01:02:53.108Z,15.30
2018-05-10T01:05:20.563Z,15.50
2018-05-10T01:07:48.783Z,16.00
2018-05-10T01:10:16.237Z,16.00
2018-05-10T01:12:44.142Z,15.90
2018-05-10T01:15:12.378Z,16.00
2018-05-10T01:17:39.824Z,15.90
2018-05-10T01:20:07.278Z,16.00
2018-05-10T01:22:34.741Z,16.00
2018-05-10T01:25:02.987Z,15.90
2018-05-10T01:27:31.152Z,15.80
2018-05-10T01:29:59.372Z,16.00
2018-05-10T01:32:26.803Z,16.00
2018-05-10T01:35:06.275Z,16.00
2018-05-10T01:37:33.722Z,15.90
2018-05-10T01:40:01.187Z,15.80
2018-05-10T01:42:28.722Z,15.60
2018-05-10T01:44:56.169Z,15.40
2018-05-10T01:47:23.613Z,15.40
2018-05-10T01:49:52.759Z,15.50
2018-05-10T01:52:20.206Z,15.50
2018-05-10T01:54:47.666Z,15.40
2018-05-10T01:57:15.120Z,15.40
2018-05-10T01:59:42.567Z,15.40
2018-05-10T02:02:10.025Z,15.60
2018-05-10T02:04:37.486Z,15.70
2018-05-10T02:07:04.930Z,15.50
2018-05-10T02:09:32.376Z,15.10
2018-05-10T02:11:59.834Z,14.90
2018-05-10T02:14:27.282Z,14.80
2018-05-10T02:16:54.728Z,14.80
2018-05-10T02:19:22.951Z,15.00
2018-05-10T02:21:50.390Z,15.00
2018-05-10T02:24:17.845Z,15.00
2018-05-10T02:26:45.287Z,15.10
2018-05-10T02:29:12.811Z,15.10
2018-05-10T02:31:40.248Z,15.10
2018-05-10T02:34:07.711Z,15.10
2018-05-10T02:36:35.990Z,15.00
2018-05-10T02:39:03.432Z,15.20
2018-05-10T02:41:31.722Z,15.20
2018-05-10T02:43:59.171Z,15.30
2018-05-10T02:46:26.622Z,15.20
2018-05-10T02:48:54.081Z,15.30
2018-05-10T02:51:21.515Z,15.30
2018-05-10T02:53:49.297Z,15.40
2018-05-10T02:56:17.073Z,15.40
2018-05-10T02:58:44.510Z,15.20
2018-05-10T03:01:11.965Z,15.00
2018-05-10T03:03:39.441Z,14.60
2018-05-10T03:06:06.889Z,14.50
2018-05-10T03:08:34.338Z,14.70
2018-05-10T03:11:01.817Z,14.80
2018-05-10T03:13:29.266Z,14.90
2018-05-10T03:15:56.718Z,15.10
2018-05-10T03:18:24.826Z,15.20
2018-05-10T03:20:54.070Z,15.40
2018-05-10T03:23:21.530Z,15.40
2018-05-10T03:25:48.987Z,15.40
2018-05-10T03:28:16.449Z,15.40
2018-05-10T03:30:43.899Z,15.20
2018-05-10T03:33:11.410Z,14.90
2018-05-10T03:35:38.818Z,14.70
2018-05-10T03:38:06.268Z,14.70
2018-05-10T03:40:33.816Z,14.70
2018-05-10T03:43:01.201Z,14.60
2018-05-10T03:45:28.671Z,14.60
2018-05-10T03:47:56.133Z,14.50
2018-05-10T03:50:23.606Z,14.40
2018-05-10T03:52:52.929Z,13.90
2018-05-10T03:55:21.158Z,13.70
2018-05-10T03:57:48.624Z,13.70
2018-05-10T04:00:16.065Z,13.70
2018-05-10T04:16:19.070Z,14.20
2018-05-10T04:18:46.529Z,14.20
2018-05-10T04:21:13.989Z,14.20
2018-05-10T04:23:42.213Z,14.30
2018-05-10T04:26:09.678Z,14.30
2018-05-10T04:28:37.143Z,14.30
2018-05-10T04:31:04.610Z,14.30
2018-05-10T04:33:32.073Z,14.30
2018-05-10T04:35:59.678Z,14.30
2018-05-10T04:38:27.918Z,14.20
2018-05-10T04:40:55.394Z,14.20
2018-05-10T04:43:23.611Z,14.20
2018-05-10T04:45:51.708Z,14.20
2018-05-10T04:48:19.164Z,14.30
2018-05-10T04:50:46.621Z,14.50
2018-05-10T04:53:14.066Z,14.70
2018-05-10T04:55:41.527Z,14.70
2018-05-10T04:58:09.493Z,14.60
2018-05-10T05:00:36.942Z,14.60
2018-05-10T05:03:04.402Z,14.70
2018-05-10T05:05:31.860Z,14.90
2018-05-10T05:08:00.297Z,15.10
2018-05-10T05:10:27.760Z,15.20
2018-05-10T05:12:55.974Z,15.60
2018-05-10T05:15:23.436Z,15.50
2018-05-10T05:17:51.680Z,15.70
2018-05-10T05:20:19.122Z,16.00
2018-05-10T05:22:46.578Z,16.30
2018-05-10T05:25:14.022Z,16.60
2018-05-10T05:27:42.241Z,17.20
2018-05-10T05:30:09.704Z,17.20
2018-05-10T05:32:37.203Z,17.80
2018-05-10T05:35:04.630Z,18.20
2018-05-10T05:37:32.091Z,18.60
2018-05-10T05:39:59.564Z,18.80
2018-05-10T05:42:27.010Z,19.30
2018-05-10T05:44:54.474Z,19.60
2018-05-10T05:47:21.930Z,19.70
2018-05-10T05:49:49.386Z,19.50
2018-05-10T05:52:16.858Z,19.20
2018-05-10T05:54:44.310Z,19.00
2018-05-10T05:57:11.773Z,18.90
2018-05-10T05:59:39.222Z,19.00
2018-05-10T06:02:06.678Z,18.90
2018-05-10T06:04:34.125Z,18.50
2018-05-10T06:07:01.585Z,18.40
2018-05-10T06:09:29.051Z,18.30
2018-05-10T06:11:56.509Z,18.00
2018-05-10T06:14:23.986Z,17.90
2018-05-10T06:16:52.381Z,17.70
2018-05-10T06:19:19.817Z,17.60
2018-05-10T06:21:48.059Z,17.30
2018-05-10T06:24:15.502Z,17.30
2018-05-10T06:26:42.951Z,17.20
2018-05-10T06:29:10.412Z,16.90
2018-05-10T06:31:37.870Z,16.80
2018-05-10T06:34:05.378Z,16.30
2018-05-10T06:36:32.802Z,16.10
2018-05-10T06:39:00.266Z,16.10
2018-05-10T06:41:27.788Z,16.00
2018-05-10T06:43:55.212Z,15.80
2018-05-10T06:46:23.434Z,15.80
2018-05-10T06:48:50.893Z,15.80
2018-05-10T06:51:18.358Z,15.70
2018-05-10T06:53:45.832Z,15.70
2018-05-10T06:56:13.602Z,15.50
2018-05-10T06:58:41.051Z,15.70
2018-05-10T07:01:08.509Z,15.60
2018-05-10T07:03:35.964Z,15.70
2018-05-10T07:06:03.421Z,15.90
2018-05-10T07:08:30.887Z,16.10
2018-05-10T07:10:58.352Z,15.90
2018-05-10T07:13:25.803Z,15.90
2018-05-10T07:15:53.262Z,15.90
2018-05-10T07:18:20.855Z,15.60
2018-05-10T07:20:48.311Z,15.70
2018-05-10T07:23:15.784Z,15.90
2018-05-10T07:25:43.254Z,16.00
2018-05-10T07:28:11.370Z,16.10
2018-05-10T07:30:39.599Z,16.10
2018-05-10T07:33:07.061Z,16.10
2018-05-10T07:35:34.518Z,16.20
2018-05-10T07:38:01.993Z,16.30
2018-05-10T07:40:29.450Z,16.60
2018-05-10T07:42:56.906Z,16.90
2018-05-10T07:45:24.842Z,16.80
2018-05-10T07:47:52.315Z,16.90
2018-05-10T07:50:19.802Z,16.80
2018-05-10T07:52:47.263Z,16.80
2018-05-10T07:55:14.716Z,16.90
2018-05-10T07:57:42.202Z,17.00
2018-05-10T08:00:10.414Z,17.00
2018-05-10T08:02:37.898Z,17.00
2018-05-10T08:05:05.375Z,17.00
2018-05-10T08:07:32.825Z,16.90
2018-05-10T08:10:00.290Z,16.70
2018-05-10T08:12:27.743Z,16.50
2018-05-10T08:14:55.192Z,16.70
2018-05-10T08:17:22.646Z,16.70
2018-05-10T08:19:50.098Z,16.60
2018-05-10T08:22:17.561Z,16.90
2018-05-10T08:24:45.027Z,17.50
2018-05-10T08:27:12.471Z,18.00
2018-05-10T08:29:39.930Z,18.40
2018-05-10T08:32:07.383Z,18.80
2018-05-10T08:34:34.854Z,18.90
2018-05-10T08:37:02.302Z,18.80
2018-05-10T08:39:29.767Z,18.50
2018-05-10T08:41:57.222Z,18.80
2018-05-10T08:44:24.688Z,19.20
2018-05-10T08:46:52.178Z,19.50
2018-05-10T08:49:19.622Z,19.90
2018-05-10T08:51:47.957Z,20.50
2018-05-10T08:54:15.314Z,20.50
2018-05-10T08:56:42.779Z,20.70
2018-05-10T08:59:10.226Z,20.70
2018-05-10T09:01:37.682Z,20.70
2018-05-10T09:04:05.146Z,20.70
2018-05-10T09:06:32.613Z,21.00
2018-05-10T09:09:00.068Z,20.90
2018-05-10T09:11:27.517Z,21.00
2018-05-10T09:13:54.970Z,21.10
2018-05-10T09:16:22.415Z,21.40
2018-05-10T09:18:49.903Z,21.50
2018-05-10T09:21:17.359Z,21.20
2018-05-10T09:23:44.816Z,20.80
2018-05-10T09:26:13.102Z,20.60
2018-05-10T09:28:41.407Z,20.80
2018-05-10T09:31:08.860Z,20.80
2018-05-10T09:33:36.678Z,20.70
2018-05-10T09:36:04.132Z,20.20
2018-05-10T09:38:31.597Z,20.50
2018-05-10T09:40:59.046Z,20.70
2018-05-10T09:43:26.502Z,21.00
2018-05-10T09:45:54.480Z,21.30
2018-05-10T09:48:22.030Z,21.40
2018-05-10T09:50:49.781Z,21.20
2018-05-10T09:53:17.232Z,21.10
2018-05-10T09:55:44.687Z,20.60
2018-05-10T09:58:12.158Z,20.10
2018-05-10T10:00:39.626Z,19.90
2018-05-10T10:03:07.098Z,20.30
2018-05-10T10:05:35.191Z,20.50
2018-05-10T10:08:03.503Z,20.40
2018-05-10T10:10:30.961Z,20.40
2018-05-10T10:12:58.423Z,19.80
2018-05-10T10:15:26.334Z,19.30
2018-05-10T10:17:54.566Z,19.00
2018-05-10T10:20:22.014Z,19.00
2018-05-10T10:22:49.483Z,19.50
2018-05-10T10:25:16.966Z,19.80
2018-05-10T10:27:45.403Z,19.60
2018-05-10T10:30:12.855Z,19.40
2018-05-10T10:32:40.339Z,19.10
2018-05-10T10:35:08.717Z,19.40
2018-05-10T10:37:36.166Z,19.10
2018-05-10T10:40:03.694Z,18.90
2018-05-10T10:42:31.986Z,19.10
2018-05-10T10:44:59.438Z,19.50
2018-05-10T10:47:26.899Z,20.10
2018-05-10T10:49:54.952Z,20.70
2018-05-10T10:52:22.402Z,20.70
2018-05-10T10:54:49.855Z,21.20
2018-05-10T10:57:18.086Z,21.50
2018-05-10T10:59:45.547Z,21.50
2018-05-10T11:02:13.010Z,21.70
2018-05-10T11:04:40.524Z,21.50
2018-05-10T11:07:07.970Z,21.40
2018-05-10T11:09:35.422Z,21.60
2018-05-10T11:12:02.926Z,21.90
2018-05-10T11:14:30.372Z,22.40
2018-05-10T11:16:57.839Z,23.00
2018-05-10T11:19:25.830Z,23.30
2018-05-10T11:21:53.548Z,23.40
2018-05-10T11:24:21.007Z,22.90
2018-05-10T11:26:48.457Z,22.50
2018-05-10T11:29:15.906Z,22.70
2018-05-10T11:31:43.468Z,22.40
2018-05-10T11:34:10.930Z,22.20
2018-05-10T11:36:38.390Z,21.60
2018-05-10T11:39:05.915Z,21.10
2018-05-10T11:41:33.295Z,21.10
2018-05-10T11:44:00.747Z,21.20
2018-05-10T11:46:28.218Z,21.10
2018-05-10T11:48:55.679Z,20.90
2018-05-10T11:51:23.137Z,20.50
2018-05-10T11:53:50.594Z,20.20
2018-05-10T11:56:18.140Z,19.80
2018-05-10T11:58:45.835Z,19.30
2018-05-10T12:01:13.287Z,18.60
2018-05-10T12:03:40.742Z,18.30
2018-05-10T12:06:08.259Z,18.00
2018-05-10T12:08:35.673Z,17.50
2018-05-10T12:11:03.125Z,17.30
2018-05-10T12:13:30.583Z,17.30
2018-05-10T12:15:58.039Z,17.40
2018-05-10T12:18:25.500Z,17.50
2018-05-10T12:20:52.949Z,17.40
2018-05-10T12:23:20.405Z,17.60
2018-05-10T12:25:47.873Z,17.80
2018-05-10T12:28:15.634Z,17.80
2018-05-10T12:30:43.083Z,18.00
2018-05-10T12:33:10.538Z,17.70
2018-05-10T12:35:37.998Z,17.40
2018-05-10T12:38:05.459Z,17.10
2018-05-10T12:40:32.931Z,17.00
2018-05-10T12:43:00.405Z,17.00
2018-05-10T12:45:28.634Z,17.20
2018-05-10T12:47:56.090Z,17.20
2018-05-10T12:50:23.963Z,17.40
2018-05-10T12:52:51.430Z,17.50
2018-05-10T12:55:19.113Z,17.60
2018-05-10T12:57:46.566Z,17.10
2018-05-10T13:00:14.018Z,16.50
2018-05-10T13:02:41.462Z,16.30
2018-05-10T13:05:08.920Z,16.00
2018-05-10T13:07:36.390Z,15.70
2018-05-10T13:10:03.845Z,15.60
2018-05-10T13:12:31.299Z,15.60
2018-05-10T13:14:58.756Z,15.40
2018-05-10T13:17:26.213Z,15.40
2018-05-10T13:19:53.666Z,15.60
2018-05-10T13:22:21.132Z,15.70
2018-05-10T13:24:48.588Z,15.40
2018-05-10T13:27:16.127Z,15.40
2018-05-10T13:29:44.147Z,15.70
2018-05-10T13:32:12.660Z,15.70
2018-05-10T13:34:40.120Z,15.70
2018-05-10T13:37:07.576Z,15.80
2018-05-10T13:39:35.028Z,16.30
2018-05-10T13:42:02.486Z,16.20
2018-05-10T13:44:29.930Z,16.50
2018-05-10T13:46:57.412Z,16.50
2018-05-10T13:49:24.850Z,16.70
2018-05-10T13:51:52.842Z,17.00
2018-05-10T13:54:20.282Z,17.30
2018-05-10T13:56:47.736Z,17.40
2018-05-10T13:59:15.200Z,17.40
2018-05-10T14:01:42.648Z,17.40
2018-05-10T14:04:18.551Z,17.10
2018-05-10T14:06:45.994Z,17.20
2018-05-10T14:09:13.446Z,17.10
2018-05-10T14:11:40.889Z,16.80
2018-05-10T14:14:08.349Z,17.00
2018-05-10T14:16:35.882Z,16.80
2018-05-10T14:19:03.251Z,16.90
2018-05-10T14:21:30.695Z,17.00
2018-05-10T14:23:58.167Z,17.20
2018-05-10T14:26:26.068Z,17.20
2018-05-10T14:28:53.518Z,17.20
2018-05-10T14:31:20.982Z,16.80
2018-05-10T14:33:48.426Z,16.40
2018-05-10T14:36:16.185Z,16.10
2018-05-10T14:38:43.621Z,16.10
2018-05-10T14:41:11.076Z,16.20
2018-05-10T14:43:38.539Z,16.30
2018-05-10T14:46:05.998Z,16.20
2018-05-10T14:48:33.447Z,16.10
2018-05-10T14:51:01.006Z,16.10
2018-05-10T14:53:29.047Z,16.10
2018-05-10T14:55:57.279Z,15.60
2018-05-10T14:58:24.734Z,15.60
2018-05-10T15:00:52.174Z,15.40
2018-05-10T15:03:19.627Z,15.20
2018-05-10T15:05:47.083Z,15.10
2018-05-10T15:08:14.551Z,15.10
2018-05-10T15:10:41.996Z,15.10
2018-05-10T15:13:09.455Z,15.10
2018-05-10T15:15:36.932Z,14.90
2018-05-10T15:18:04.366Z,14.60
2018-05-10T15:20:31.822Z,14.50
2018-05-10T15:22:59.266Z,14.60
2018-05-10T15:25:26.726Z,14.60
2018-05-10T15:27:54.176Z,14.70
2018-05-10T15:30:21.634Z,14.50
2018-05-10T15:32:49.090Z,14.30
2018-05-10T15:35:16.538Z,14.30
2018-05-10T15:37:44.756Z,14.40
2018-05-10T15:40:12.206Z,14.40
2018-05-10T15:42:39.676Z,14.40
2018-05-10T15:45:07.122Z,14.30
2018-05-10T15:47:34.595Z,14.30
2018-05-10T15:50:02.046Z,14.10
2018-05-10T15:52:30.977Z,14.00
2018-05-10T15:54:58.411Z,14.00
2018-05-10T15:57:25.852Z,13.90
2018-05-10T15:59:53.310Z,13.90
2018-05-10T16:02:20.867Z,13.80
2018-05-10T16:04:48.320Z,13.70
2018-05-10T16:07:15.777Z,13.70
2018-05-10T16:09:43.230Z,13.50
2018-05-10T16:12:10.899Z,13.50
2018-05-10T16:14:38.670Z,13.40
2018-05-10T16:17:06.142Z,13.40
2018-05-10T16:19:33.595Z,13.50
2018-05-10T16:22:01.054Z,13.70
2018-05-10T16:24:28.498Z,13.70
2018-05-10T16:26:55.957Z,13.50
2018-05-10T16:29:23.418Z,13.60
2018-05-10T16:31:50.869Z,13.70
2018-05-10T16:34:18.350Z,13.90
2018-05-10T16:36:45.814Z,13.90
2018-05-10T16:39:14.040Z,13.90
2018-05-10T16:41:41.491Z,13.90
2018-05-10T16:44:08.956Z,13.90
2018-05-10T16:46:36.410Z,14.00
2018-05-10T16:49:03.858Z,14.00
2018-05-10T16:51:31.314Z,14.10
2018-05-10T16:53:58.813Z,14.10
2018-05-10T16:56:26.270Z,14.10
2018-05-10T16:58:53.713Z,14.10
2018-05-10T17:01:21.167Z,14.10
2018-05-10T17:03:48.671Z,14.30
2018-05-10T17:06:17.254Z,14.20
2018-05-10T17:08:45.467Z,14.30
2018-05-10T17:11:12.938Z,14.30
2018-05-10T17:13:40.403Z,14.10
2018-05-10T17:16:07.842Z,14.00
2018-05-10T17:18:35.339Z,14.00
2018-05-10T17:21:02.768Z,14.10
2018-05-10T17:23:30.242Z,14.10
2018-05-10T17:25:57.690Z,14.20
2018-05-10T17:28:25.153Z,14.30
2018-05-10T17:30:52.655Z,14.30
2018-05-10T17:33:20.084Z,14.20
2018-05-10T17:35:47.541Z,14.10
2018-05-10T17:38:15.006Z,14.00
2018-05-10T17:40:43.232Z,13.80
2018-05-10T17:43:10.706Z,13.80
2018-05-10T17:45:38.157Z,13.80
2018-05-10T17:48:05.608Z,13.80
2018-05-10T17:50:33.058Z,13.80
2018-05-10T17:53:00.519Z,13.80
2018-05-10T17:55:27.984Z,13.80
2018-05-10T17:57:55.448Z,13.80
2018-05-10T18:00:22.918Z,13.80
2018-05-10T18:02:50.643Z,13.80
2018-05-10T18:05:18.090Z,13.80
2018-05-10T18:07:45.547Z,13.80
2018-05-10T18:10:13.019Z,13.60
2018-05-10T18:12:40.470Z,13.50
2018-05-10T18:15:07.927Z,13.50
2018-05-10T18:17:35.383Z,13.50
2018-05-10T18:20:02.839Z,13.50
2018-05-10T18:22:30.322Z,13.60
2018-05-10T18:24:58.293Z,13.70
2018-05-10T18:27:25.746Z,13.60
2018-05-10T18:29:53.883Z,13.60
2018-05-10T18:32:21.913Z,13.70
2018-05-10T18:34:49.374Z,13.70
2018-05-10T18:37:16.831Z,13.70
2018-05-10T18:39:44.994Z,13.60
2018-05-10T18:42:12.458Z,13.70
2018-05-10T18:44:39.920Z,13.70
2018-05-10T18:47:07.764Z,13.80
2018-05-10T18:49:35.214Z,13.60
2018-05-10T18:52:03.546Z,13.50
2018-05-10T18:54:31.047Z,13.50
2018-05-10T18:56:58.446Z,13.60
2018-05-10T18:59:26.679Z,13.50
2018-05-10T19:01:54.224Z,13.50
2018-05-10T19:04:21.587Z,13.60
2018-05-10T19:06:49.039Z,13.50
2018-05-10T19:09:16.500Z,13.60
2018-05-10T19:11:43.961Z,13.60
2018-05-10T19:14:11.592Z,13.60
2018-05-10T19:16:39.052Z,13.50
2018-05-10T19:19:06.591Z,13.40
2018-05-10T19:21:34.824Z,13.30
2018-05-10T19:24:03.049Z,13.40
2018-05-10T19:26:31.419Z,13.40
2018-05-10T19:28:58.838Z,13.50
2018-05-10T19:31:26.294Z,13.40
2018-05-10T19:33:53.759Z,13.40
2018-05-10T19:36:21.861Z,13.30
2018-05-10T19:38:50.082Z,13.40
2018-05-10T19:41:17.538Z,13.40
2018-05-10T19:43:44.992Z,13.30
2018-05-10T19:46:12.689Z,13.30
2018-05-10T19:48:40.147Z,13.40
2018-05-10T19:51:07.590Z,13.40
2018-05-10T19:53:35.047Z,13.40
2018-05-10T19:56:02.494Z,13.30
2018-05-10T19:58:29.967Z,13.30
2018-05-10T20:00:58.240Z,13.30
2018-05-10T20:03:25.715Z,13.30
2018-05-10T20:05:53.162Z,13.20
2018-05-10T20:08:20.615Z,13.30
2018-05-10T20:10:48.080Z,13.20
2018-05-10T20:13:15.530Z,13.30
2018-05-10T20:15:43.006Z,13.30
2018-05-10T20:18:10.450Z,13.30
2018-05-10T20:20:38.774Z,13.30
2018-05-10T20:23:06.878Z,13.30
2018-05-10T20:25:34.331Z,13.30
2018-05-10T20:28:01.804Z,13.30
2018-05-10T20:30:29.286Z,13.30
2018-05-10T20:32:57.507Z,13.10
2018-05-10T20:35:24.962Z,13.20
2018-05-10T20:37:52.426Z,13.20
2018-05-10T20:40:19.885Z,13.20
2018-05-10T20:42:47.441Z,13.20
2018-05-10T20:45:14.893Z,13.30
2018-05-10T20:47:42.414Z,13.40
2018-05-10T20:50:10.641Z,13.60
2018-05-10T20:52:38.095Z,13.60
2018-05-10T20:55:05.592Z,13.50
2018-05-10T20:57:33.027Z,13.30
2018-05-10T21:00:00.486Z,13.30
2018-05-10T21:02:27.933Z,13.20
2018-05-10T21:04:55.943Z,13.20
2018-05-10T21:07:24.180Z,13.30
2018-05-10T21:09:51.687Z,13.30
2018-05-10T21:12:31.759Z,13.30
2018-05-10T21:14:59.235Z,13.30
2018-05-10T21:17:26.691Z,13.30
2018-05-10T21:19:54.134Z,13.20
2018-05-10T21:22:21.595Z,13.10
2018-05-10T21:24:49.503Z,13.10
2018-05-10T21:27:16.982Z,13.00
2018-05-10T21:29:45.207Z,12.90
2018-05-10T21:32:12.660Z,12.90
2018-05-10T21:34:40.132Z,12.90
2018-05-10T21:37:07.578Z,12.80
2018-05-10T21:39:35.036Z,12.80
2018-05-10T21:42:02.483Z,12.80
2018-05-10T21:44:30.698Z,12.70
2018-05-10T21:46:58.159Z,12.60
2018-05-10T21:49:38.173Z,12.60
2018-05-10T21:52:05.635Z,12.60
2018-05-10T21:54:33.095Z,12.50
2018-05-10T21:57:00.546Z,12.50
2018-05-10T21:59:28.015Z,12.50
2018-05-10T22:01:55.463Z,12.50
2018-05-10T22:04:23.530Z,12.50
2018-05-10T22:06:50.982Z,12.50
2018-05-10T22:09:18.450Z,12.60
2018-05-10T22:11:46.418Z,12.60
2018-05-10T22:14:13.874Z,12.60
2018-05-10T22:16:41.338Z,12.60
2018-05-10T22:19:09.722Z,12.60
2018-05-10T22:21:37.184Z,12.70
2018-05-10T22:24:04.643Z,12.70
2018-05-10T22:26:32.106Z,12.70
2018-05-10T22:28:59.573Z,12.70
2018-05-10T22:31:27.787Z,12.60
2018-05-10T22:33:55.251Z,12.60
2018-05-10T22:36:22.706Z,12.60
2018-05-10T22:38:50.159Z,12.60
2018-05-10T22:41:17.618Z,12.60
2018-05-10T22:43:45.078Z,12.70
2018-05-10T22:46:13.483Z,12.70
2018-05-10T22:48:40.930Z,12.70
2018-05-10T22:51:08.408Z,12.70
2018-05-10T22:53:35.868Z,12.60
2018-05-10T22:56:03.877Z,12.60
2018-05-10T22:58:31.336Z,12.60
2018-05-10T23:00:58.805Z,12.60
2018-05-10T23:03:26.255Z,12.60
2018-05-10T23:05:53.709Z,12.60
2018-05-10T23:08:21.167Z,12.60
2018-05-10T23:10:48.611Z,12.50
2018-05-10T23:13:16.083Z,12.50
2018-05-10T23:15:43.550Z,12.50
2018-05-10T23:18:11.012Z,12.50
2018-05-10T23:20:38.471Z,12.50
2018-05-10T23:23:05.923Z,12.50
2018-05-10T23:25:33.379Z,12.40
2018-05-10T23:28:00.838Z,12.40
2018-05-10T23:30:28.297Z,12.40
2018-05-10T23:32:56.182Z,12.40
2018-05-10T23:35:24.474Z,12.40
2018-05-10T23:37:51.938Z,12.30
2018-05-10T23:40:19.395Z,12.30
2018-05-10T23:42:46.843Z,12.30
2018-05-10T23:45:14.303Z,12.20
2018-05-10T23:47:41.750Z,12.20
2018-05-10T23:50:09.206Z,12.20
2018-05-10T23:52:36.657Z,12.20
2018-05-10T23:55:04.117Z,12.10
2018-05-10T23:57:31.561Z,12.10
2018-05-10T23:59:59.028Z,12.00
